createdAt,value
2019-05-16T00:02:08.360Z,1.00
2019-05-16T00:13:22.316Z,0.97
2019-05-16T00:16:09.824Z,1.10
2019-05-16T00:21:43.223Z,1.00
2019-05-16T00:24:18.883Z,0.97
2019-05-16T00:29:59.861Z,1.03
2019-05-16T00:44:19.978Z,1.10
2019-05-16T00:47:11.874Z,1.00
2019-05-16T00:55:38.919Z,0.90
2019-05-16T01:01:22.354Z,1.30
2019-05-16T01:03:59.793Z,1.20
2019-05-16T01:06:44.931Z,1.20
2019-05-16T01:09:19.419Z,1.30
2019-05-16T01:12:03.416Z,1.10
2019-05-16T01:17:43.397Z,1.10
2019-05-16T01:23:24.749Z,1.10
2019-05-16T01:26:02.089Z,1.10
2019-05-16T01:28:34.796Z,1.30
2019-05-16T01:31:19.986Z,1.63
2019-05-16T01:34:00.914Z,1.10
2019-05-16T01:39:38.170Z,1.20
2019-05-16T01:42:20.624Z,1.17
2019-05-16T01:45:00.854Z,1.93
2019-05-16T01:50:33.828Z,1.00
2019-05-16T01:53:10.124Z,1.20
2019-05-16T02:04:30.471Z,1.17
2019-05-16T02:10:11.660Z,1.10
2019-05-16T02:12:45.948Z,1.20
2019-05-16T02:15:28.589Z,1.40
2019-05-16T02:18:18.484Z,1.33
2019-05-16T02:20:51.498Z,1.20
2019-05-16T02:23:38.108Z,1.37
2019-05-16T02:26:14.478Z,1.20
2019-05-16T02:43:31.142Z,1.37
2019-05-16T02:49:11.485Z,1.20
2019-05-16T02:54:56.679Z,1.20
2019-05-16T03:03:44.010Z,1.23
2019-05-16T03:09:21.358Z,1.20
2019-05-16T03:20:43.198Z,1.30
2019-05-16T03:23:21.837Z,1.30
2019-05-16T03:38:11.791Z,1.33
2019-05-16T03:40:51.027Z,1.37
2019-05-16T04:21:46.838Z,1.40
2019-05-16T04:24:21.694Z,1.47
2019-05-16T04:47:27.523Z,1.45
2019-05-16T05:08:17.670Z,2.20
2019-05-16T05:10:52.451Z,1.60
2019-05-16T05:13:22.811Z,1.47
2019-05-16T05:39:06.237Z,1.40
2019-05-16T05:55:25.988Z,1.92
2019-05-16T06:03:22.919Z,1.27
2019-05-16T06:05:52.327Z,1.10
2019-05-16T06:08:21.460Z,1.60
2019-05-16T06:10:50.863Z,1.50
2019-05-16T06:13:21.023Z,1.10
2019-05-16T06:15:51.458Z,1.22
2019-05-16T06:23:47.611Z,1.07
2019-05-16T06:29:03.934Z,1.30
2019-05-16T06:31:33.514Z,1.10
2019-05-16T06:39:22.058Z,1.20
2019-05-16T06:41:51.313Z,1.00
2019-05-16T06:44:21.104Z,1.50
2019-05-16T06:47:08.857Z,1.27
2019-05-16T06:49:22.160Z,1.20
2019-05-16T06:51:51.656Z,1.00
2019-05-16T06:54:20.918Z,1.00
2019-05-16T06:56:52.253Z,1.10
2019-05-16T07:10:13.500Z,1.20
2019-05-16T08:31:25.302Z,1.22
2019-05-16T08:42:14.951Z,1.42
2019-05-16T08:44:44.889Z,1.35
2019-05-16T08:47:21.098Z,1.60
2019-05-16T08:49:52.192Z,1.20
2019-05-16T08:52:23.460Z,1.50
2019-05-16T08:54:53.294Z,1.32
2019-05-16T08:57:27.739Z,1.30
2019-05-16T09:00:05.677Z,1.70
2019-05-16T09:02:36.904Z,1.42
2019-05-16T09:05:13.008Z,1.40
2019-05-16T09:07:38.791Z,1.32
2019-05-16T09:12:49.013Z,1.30
2019-05-16T09:15:20.537Z,1.20
2019-05-16T09:17:54.177Z,1.20
2019-05-16T09:20:28.202Z,1.30
2019-05-16T09:22:58.216Z,1.50
2019-05-16T09:25:41.308Z,1.30
2019-05-16T09:33:47.218Z,1.40
2019-05-16T09:36:32.467Z,1.40
2019-05-16T09:39:17.137Z,1.57
2019-05-16T09:44:47.752Z,1.35
2019-05-16T09:47:17.697Z,1.60
2019-05-16T09:55:02.415Z,1.40
2019-05-16T09:57:31.507Z,1.42
2019-05-16T10:00:01.595Z,1.40
2019-05-16T10:02:30.900Z,1.57
2019-05-16T10:05:00.107Z,1.40
2019-05-16T10:07:30.340Z,1.22
2019-05-16T10:10:00.035Z,1.42
2019-05-16T10:12:29.230Z,1.50
2019-05-16T10:14:59.786Z,1.30
2019-05-16T10:17:29.727Z,1.25
2019-05-16T10:22:37.563Z,1.52
2019-05-16T10:25:07.409Z,1.20
2019-05-16T10:27:38.406Z,1.30
2019-05-16T10:30:08.765Z,1.50
2019-05-16T10:32:39.806Z,2.02
2019-05-16T10:35:09.965Z,1.40
2019-05-16T10:37:39.531Z,1.37
2019-05-16T10:40:09.112Z,1.22
2019-05-16T10:42:38.284Z,1.40
2019-05-16T11:16:17.313Z,1.37
2019-05-16T11:18:46.288Z,1.17
2019-05-16T11:21:18.908Z,1.30
2019-05-16T11:23:47.140Z,1.42
2019-05-16T11:26:27.651Z,1.20
2019-05-16T11:28:56.970Z,1.30
2019-05-16T11:31:27.590Z,1.70
2019-05-16T11:33:57.402Z,1.30
2019-05-16T11:36:28.676Z,1.17
2019-05-16T11:39:01.962Z,1.27
2019-05-16T11:41:30.622Z,1.37
2019-05-16T11:43:59.715Z,1.45
2019-05-16T11:46:28.835Z,1.42
2019-05-16T11:51:54.606Z,1.20
2019-05-16T11:54:26.599Z,1.30
2019-05-16T11:57:02.084Z,1.40
2019-05-16T11:59:32.803Z,1.20
2019-05-16T12:02:03.193Z,1.25
2019-05-16T12:04:33.541Z,1.40
2019-05-16T12:07:09.349Z,1.20
2019-05-16T12:09:50.624Z,1.25
2019-05-16T12:12:16.864Z,1.30
2019-05-16T12:14:46.228Z,1.27
2019-05-16T12:17:16.603Z,1.20
2019-05-16T12:19:48.245Z,1.30
2019-05-16T12:22:18.309Z,1.20
2019-05-16T12:24:49.054Z,1.25
2019-05-16T12:27:19.436Z,1.20
2019-05-16T12:29:54.704Z,1.67
2019-05-16T12:32:19.233Z,1.20
2019-05-16T12:34:52.387Z,1.10
2019-05-16T12:37:27.604Z,1.32
2019-05-16T12:39:57.328Z,1.20
2019-05-16T12:42:27.093Z,1.22
2019-05-16T12:44:56.418Z,1.10
2019-05-16T12:47:29.893Z,1.30
2019-05-16T12:49:59.058Z,1.30
2019-05-16T12:52:31.299Z,1.20
2019-05-16T12:55:02.249Z,1.20
2019-05-16T12:57:31.851Z,1.20
2019-05-16T13:00:00.935Z,1.17
2019-05-16T13:02:33.123Z,1.45
2019-05-16T13:05:06.707Z,1.20
2019-05-16T13:07:37.744Z,1.55
2019-05-16T13:10:08.800Z,1.10
2019-05-16T13:12:41.033Z,1.20
2019-05-16T13:15:10.254Z,1.20
2019-05-16T13:17:39.302Z,1.10
2019-05-16T13:20:08.838Z,1.10
2019-05-16T13:22:38.577Z,1.30
2019-05-16T13:25:10.756Z,1.70
2019-05-16T13:27:40.071Z,1.10
2019-05-16T13:30:10.162Z,1.22
2019-05-16T13:32:39.348Z,1.20
2019-05-16T13:35:12.248Z,1.10
2019-05-16T13:37:42.227Z,1.20
2019-05-16T13:40:12.075Z,1.17
2019-05-16T13:42:41.219Z,1.25
2019-05-16T13:45:10.536Z,1.10
2019-05-16T13:47:39.829Z,1.30
2019-05-16T13:50:12.319Z,1.20
2019-05-16T13:52:40.465Z,1.30
2019-05-16T13:55:18.689Z,1.20
2019-05-16T13:57:47.763Z,1.12
2019-05-16T14:00:18.759Z,1.20
2019-05-16T14:02:47.971Z,1.30
2019-05-16T14:05:18.094Z,1.10
2019-05-16T14:07:47.942Z,1.12
2019-05-16T14:10:18.694Z,1.20
2019-05-16T14:12:50.338Z,1.15
2019-05-16T14:15:19.639Z,1.10
2019-05-16T14:17:56.662Z,1.10
2019-05-16T14:20:24.729Z,1.30
2019-05-16T14:22:53.794Z,1.00
2019-05-16T14:25:22.865Z,1.12
2019-05-16T14:27:51.916Z,1.20
2019-05-16T14:30:21.122Z,1.40
2019-05-16T14:32:50.942Z,1.40
2019-05-16T14:35:20.153Z,1.20
2019-05-16T14:37:50.104Z,1.27
2019-05-16T14:40:19.468Z,1.30
2019-05-16T14:42:48.682Z,1.10
2019-05-16T14:45:18.869Z,1.20
2019-05-16T14:47:48.530Z,1.10
2019-05-16T14:50:18.822Z,1.10
2019-05-16T14:52:47.942Z,1.10
2019-05-16T14:55:18.472Z,1.05
2019-05-16T14:57:48.050Z,1.20
2019-05-16T15:00:18.497Z,1.20
2019-05-16T15:02:48.391Z,1.00
2019-05-16T15:05:17.639Z,1.32
2019-05-16T15:07:48.325Z,1.47
2019-05-16T15:10:18.905Z,1.40
2019-05-16T15:12:48.054Z,1.20
2019-05-16T15:15:24.040Z,1.30
2019-05-16T15:17:56.819Z,1.50
2019-05-16T15:20:27.987Z,1.40
2019-05-16T15:22:56.727Z,1.17
2019-05-16T15:25:31.441Z,1.37
2019-05-16T15:28:02.559Z,1.30
2019-05-16T15:30:32.603Z,1.40
2019-05-16T15:33:01.718Z,1.45
2019-05-16T15:35:31.717Z,1.27
2019-05-16T15:38:00.890Z,1.25
2019-05-16T15:40:31.483Z,1.20
2019-05-16T15:43:11.327Z,1.20
2019-05-16T15:45:45.019Z,1.30
2019-05-16T15:48:13.120Z,1.32
2019-05-16T15:50:42.463Z,1.20
2019-05-16T15:53:11.771Z,1.20
2019-05-16T15:55:41.101Z,1.20
2019-05-16T15:58:10.577Z,1.30
2019-05-16T16:00:42.259Z,1.25
2019-05-16T16:03:11.574Z,1.40
2019-05-16T16:05:40.799Z,1.37
2019-05-16T16:08:12.488Z,1.30
2019-05-16T16:10:47.541Z,1.30
2019-05-16T16:13:19.867Z,1.42
2019-05-16T16:15:53.317Z,1.27
2019-05-16T16:18:21.770Z,1.30
2019-05-16T16:20:49.360Z,1.27
2019-05-16T16:23:18.762Z,1.50
2019-05-16T16:25:50.422Z,1.52
2019-05-16T16:28:18.767Z,1.22
2019-05-16T16:30:48.498Z,1.40
2019-05-16T16:33:25.438Z,1.27
2019-05-16T16:35:49.128Z,1.30
2019-05-16T16:38:18.851Z,1.55
2019-05-16T16:40:48.158Z,1.30
2019-05-16T16:43:17.700Z,1.65
2019-05-16T16:45:48.068Z,2.37
2019-05-16T16:48:17.781Z,1.12
2019-05-16T16:50:46.934Z,1.30
2019-05-16T16:53:17.660Z,1.12
2019-05-16T16:55:47.647Z,1.30
2019-05-16T16:58:17.497Z,1.10
2019-05-16T17:00:47.697Z,1.17
2019-05-16T17:03:17.635Z,1.30
2019-05-16T17:05:47.440Z,1.07
2019-05-16T17:08:17.261Z,1.27
2019-05-16T17:10:48.540Z,1.17
2019-05-16T17:13:17.614Z,1.17
2019-05-16T17:15:47.304Z,1.10
2019-05-16T17:18:17.471Z,1.17
2019-05-16T17:20:48.309Z,1.47
2019-05-16T17:23:17.564Z,1.10
2019-05-16T17:25:47.289Z,1.10
2019-05-16T17:28:17.422Z,1.00
2019-05-16T17:30:47.233Z,1.22
2019-05-16T17:33:18.959Z,1.05
2019-05-16T17:35:48.970Z,1.10
2019-05-16T17:38:19.117Z,1.05
2019-05-16T17:40:48.644Z,1.20
2019-05-16T17:43:18.284Z,1.40
2019-05-16T17:45:47.467Z,1.27
2019-05-16T17:48:17.519Z,1.10
2019-05-16T17:50:47.637Z,1.22
2019-05-16T17:53:17.474Z,1.10
2019-05-16T17:55:47.263Z,1.10
2019-05-16T17:58:16.700Z,1.25
2019-05-16T18:00:47.470Z,1.15
2019-05-16T18:03:17.419Z,1.10
2019-05-16T18:05:47.760Z,1.05
2019-05-16T18:08:16.917Z,1.32
2019-05-16T18:10:48.381Z,1.30
2019-05-16T18:13:19.078Z,1.20
2019-05-16T18:15:48.283Z,1.30
2019-05-16T18:18:18.535Z,1.20
2019-05-16T18:20:55.852Z,1.07
2019-05-16T18:23:18.346Z,1.30
2019-05-16T18:25:48.770Z,1.30
2019-05-16T18:28:18.749Z,1.10
2019-05-16T18:30:47.824Z,1.45
2019-05-16T18:33:16.882Z,1.20
2019-05-16T18:35:48.052Z,1.45
2019-05-16T18:38:17.136Z,1.47
2019-05-16T18:40:47.449Z,1.27
2019-05-16T18:43:21.360Z,1.35
2019-05-16T18:45:50.365Z,1.57
2019-05-16T18:48:19.587Z,1.47
2019-05-16T18:50:48.821Z,1.85
2019-05-16T18:53:18.163Z,1.72
2019-05-16T18:55:47.434Z,1.70
2019-05-16T18:58:17.958Z,1.70
2019-05-16T19:00:48.876Z,1.52
2019-05-16T19:03:18.961Z,1.60
2019-05-16T19:05:48.595Z,1.37
2019-05-16T19:08:17.695Z,1.30
2019-05-16T19:10:47.417Z,1.20
2019-05-16T19:13:16.958Z,1.75
2019-05-16T19:15:49.299Z,1.10
2019-05-16T19:18:17.586Z,1.60
2019-05-16T19:20:48.882Z,1.30
2019-05-16T19:23:17.965Z,1.30
2019-05-16T19:25:47.458Z,1.15
2019-05-16T19:28:16.635Z,1.50
2019-05-16T19:30:46.511Z,1.40
2019-05-16T19:33:21.401Z,1.65
2019-05-16T19:35:50.785Z,1.37
2019-05-16T19:38:21.194Z,1.25
2019-05-16T19:40:52.179Z,1.60
2019-05-16T19:43:21.301Z,1.90
2019-05-16T19:45:50.471Z,1.52
2019-05-16T19:48:19.677Z,1.40
2019-05-16T19:50:48.857Z,1.60
2019-05-16T19:53:17.924Z,2.10
2019-05-16T19:55:47.423Z,1.70
2019-05-16T19:58:16.963Z,1.47
2019-05-16T20:00:56.914Z,1.30
2019-05-16T20:03:23.542Z,1.50
2019-05-16T20:05:52.828Z,1.60
2019-05-16T20:08:21.919Z,1.60
2019-05-16T20:10:51.170Z,1.45
2019-05-16T20:13:22.103Z,1.55
2019-05-16T20:15:51.165Z,1.90
2019-05-16T20:18:21.464Z,1.50
2019-05-16T20:20:52.255Z,1.67
2019-05-16T20:23:21.400Z,1.65
2019-05-16T20:25:50.580Z,1.40
2019-05-16T20:28:19.957Z,1.70
2019-05-16T20:30:51.071Z,1.70
2019-05-16T20:33:20.382Z,1.45
2019-05-16T20:35:51.704Z,1.65
2019-05-16T20:38:20.856Z,1.80
2019-05-16T20:40:50.057Z,1.60
2019-05-16T20:43:19.209Z,1.37
2019-05-16T20:45:49.468Z,1.52
2019-05-16T20:48:20.569Z,1.72
2019-05-16T20:50:49.726Z,1.57
2019-05-16T20:53:18.950Z,1.45
2019-05-16T20:55:49.680Z,1.35
2019-05-16T20:58:18.818Z,1.42
2019-05-16T21:00:49.733Z,1.72
2019-05-16T21:03:18.677Z,1.90
2019-05-16T21:05:48.341Z,1.40
2019-05-16T21:08:17.641Z,1.50
2019-05-16T21:10:46.909Z,1.40
2019-05-16T21:13:17.986Z,1.20
2019-05-16T21:15:47.953Z,1.02
2019-05-16T21:18:18.035Z,1.40
2019-05-16T21:20:47.198Z,1.35
2019-05-16T21:23:19.261Z,1.15
2019-05-16T21:25:47.875Z,1.25
2019-05-16T21:28:19.875Z,1.40
2019-05-16T21:30:48.367Z,1.30
2019-05-16T21:33:18.659Z,1.20
2019-05-16T21:35:48.110Z,1.17
2019-05-16T21:38:17.836Z,1.30
2019-05-16T21:40:47.010Z,1.50
2019-05-16T21:43:18.089Z,1.52
2019-05-16T21:45:48.052Z,1.45
2019-05-16T21:48:19.481Z,1.30
2019-05-16T21:50:48.666Z,1.00
2019-05-16T21:53:18.321Z,1.40
2019-05-16T21:55:47.433Z,1.17
2019-05-16T21:58:16.593Z,1.17
2019-05-16T22:00:48.373Z,1.20
2019-05-16T22:03:18.101Z,1.10
2019-05-16T22:05:47.389Z,1.20
2019-05-16T22:08:16.881Z,1.12
2019-05-16T22:10:46.875Z,1.30
2019-05-16T22:13:16.072Z,1.05
2019-05-16T22:15:46.362Z,1.20
2019-05-16T22:18:16.573Z,0.90
2019-05-16T22:20:48.920Z,1.10
2019-05-16T22:23:17.368Z,1.10
2019-05-16T22:25:48.966Z,1.30
2019-05-16T22:28:17.387Z,1.00
2019-05-16T22:30:46.704Z,1.30
2019-05-16T22:33:17.910Z,1.15
2019-05-16T22:35:49.506Z,1.30
2019-05-16T22:38:18.752Z,1.12
2019-05-16T22:40:47.917Z,1.40
2019-05-16T22:43:17.495Z,1.40
2019-05-16T22:45:47.377Z,1.52
2019-05-16T22:48:17.432Z,1.30
2019-05-16T22:50:47.101Z,1.80
2019-05-16T22:53:19.042Z,1.82
2019-05-16T22:55:48.586Z,2.40
2019-05-16T22:58:17.705Z,2.52
2019-05-16T23:00:47.209Z,2.40
2019-05-16T23:03:17.590Z,2.00
2019-05-16T23:05:47.353Z,2.43
2019-05-16T23:08:16.871Z,1.72
2019-05-16T23:10:46.565Z,2.00
2019-05-16T23:13:16.983Z,1.93
2019-05-16T23:15:46.678Z,2.10
2019-05-16T23:18:17.234Z,2.20
2019-05-16T23:20:47.397Z,2.07
2019-05-16T23:23:17.378Z,2.30
2019-05-16T23:25:47.403Z,2.07
2019-05-16T23:28:16.803Z,1.70
2019-05-16T23:30:47.143Z,1.83
2019-05-16T23:33:17.267Z,1.70
2019-05-16T23:35:46.837Z,2.00
2019-05-16T23:38:19.967Z,1.80
2019-05-16T23:40:49.280Z,1.97
2019-05-16T23:43:18.511Z,1.70
2019-05-16T23:45:47.666Z,1.83
2019-05-16T23:48:16.763Z,1.73
2019-05-16T23:50:47.545Z,1.60
2019-05-16T23:53:16.865Z,1.60
2019-05-16T23:55:47.160Z,1.50
2019-05-16T23:58:16.948Z,1.20
